Larkspur — C6BR6 — position and weather

sailwx.info

Track history (hours):
 
Tides and Currents Weather Stations Pressure Air Temp Water Temp Dewpoint Dewpoint Depression Visibility Wind Speed Wind Dir Waves Ship Positions

Larkspur

Operator: Transeuropa Lines

Last reported at 2019-Mar-12 16:27 UTC. Time now 2019-Mar-22 12:47 UTC.
Position N 09°13' W 079°55'.
Warning: this ship's position is 9 days out of date.

Length 225 m; draft 11.6 m.

Type: Tanker. MMSI: 311000344.

Date/timePositionNaut miles runAvg speedWind from/ knotsBaromVisibWave heightAir tempDewpointWater temp
2019-Mar-12 16:27N 09°13' W 079°55'1 0.8
2019-Mar-12 15:36N 09°13' W 079°56'0 0.1
2019-Mar-12 15:30N 09°13' W 079°56'0 0.0
2019-Mar-12 14:45N 09°13' W 079°56'0 0.0
2019-Mar-12 14:30N 09°13' W 079°56'0 0.0
2019-Mar-12 14:00N 09°13' W 079°56'0 0.0
2019-Mar-12 13:30N 09°13' W 079°56'0 0.0
2019-Mar-12 12:54N 09°13' W 079°56'0 0.1
2019-Mar-12 12:27N 09°13' W 079°56'0 0.0
2019-Mar-12 12:00N 09°13' W 079°56'0 0.0
2019-Mar-12 11:27N 09°13' W 079°56'0 0.0
2019-Mar-12 11:00N 09°13' W 079°56'0 0.0
2019-Mar-12 10:27N 09°13' W 079°56'0 0.0
2019-Mar-12 10:00N 09°13' W 079°56'0 0.0
2019-Mar-12 09:30N 09°13' W 079°56'0 0.0
2019-Mar-12 08:57N 09°13' W 079°56'0 0.0
2019-Mar-12 07:18N 09°13' W 079°56'0 0.0
2019-Mar-12 05:45N 09°13' W 079°56'0 0.1
2019-Mar-12 05:30N 09°13' W 079°56'0 0.0
2019-Mar-12 05:00N 09°13' W 079°56'0 0.1
2019-Mar-12 04:24N 09°13' W 079°56'0 0.4
2019-Mar-12 04:00N 09°13' W 079°56'2 4.3
2019-Mar-12 03:26N 09°16' W 079°55'0 0.7
2019-Mar-12 03:00N 09°16' W 079°55'0 0.4
2019-Mar-12 02:30N 09°16' W 079°55'0 0.2
2019-Mar-12 01:50N 09°16' W 079°55'1 0.6
2019-Mar-12 00:36N 09°17' W 079°55'1 1.3
2019-Mar-12 00:05N 09°18' W 079°55'0 2.1
2019-Mar-11 23:59N 09°18' W 079°55'2 4.7
2019-Mar-11 23:30N 09°20' W 079°55'3 6.2
2019-Mar-11 23:00N 09°23' W 079°55'3 6.9
2019-Mar-11 22:30N 09°27' W 079°55'3 5.2
2019-Mar-11 22:00N 09°29' W 079°57'1 0.6
2019-Mar-11 21:10N 09°29' W 079°56'0 0.0
2019-Mar-11 20:58N 09°29' W 079°56'0 0.0
2019-Mar-11 20:22N 09°29' W 079°56'0 0.0
2019-Mar-11 19:55N 09°29' W 079°56'0 0.0
2019-Mar-11 19:28N 09°29' W 079°56'0 0.0
2019-Mar-11 18:58N 09°29' W 079°56'0 0.1
2019-Mar-11 18:28N 09°29' W 079°56'0 0.0
2019-Mar-11 17:43N 09°29' W 079°56'0 0.2
2019-Mar-11 17:25N 09°29' W 079°56'0 0.0
2019-Mar-11 16:28N 09°29' W 079°56'0 0.0
2019-Mar-11 15:55N 09°29' W 079°56'0 0.0
2019-Mar-11 15:10N 09°29' W 079°56'0 0.0
2019-Mar-11 14:49N 09°29' W 079°56'0 0.1
2019-Mar-11 14:13N 09°29' W 079°56'0 0.2
2019-Mar-11 13:52N 09°29' W 079°56'0 0.0
2019-Mar-11 13:28N 09°29' W 079°56'0 0.1
2019-Mar-11 12:58N 09°29' W 079°56'0 0.0
2019-Mar-11 12:28N 09°29' W 079°56'0 0.0
2019-Mar-11 11:58N 09°29' W 079°56'0 0.1
2019-Mar-11 11:28N 09°29' W 079°56'0 0.0
2019-Mar-11 10:58N 09°29' W 079°56'0 0.0
2019-Mar-11 10:28N 09°29' W 079°56'0 0.1
2019-Mar-11 09:58N 09°29' W 079°56'0 0.1
2019-Mar-11 09:16N 09°29' W 079°56'0 0.0
2019-Mar-11 08:58N 09°29' W 079°56'0 0.0
2019-Mar-11 08:28N 09°29' W 079°56'0 0.1
2019-Mar-11 08:00N 09°29' W 079°56'0 0.9
2019-Mar-11 07:31N 09°29' W 079°56'3 5.9
2019-Mar-11 07:00N 09°31' W 079°54'612.2
2019-Mar-11 06:29N 09°37' W 079°52'  
2019-Mar-06 17:28N 29°20' W 094°40'612.6
2019-Mar-06 17:00N 29°21' W 094°47'612.1
2019-Mar-06 16:30N 29°26' W 094°50'611.4
2019-Mar-06 16:00N 29°31' W 094°53'510.8
2019-Mar-06 15:30N 29°36' W 094°57'5 9.1
2019-Mar-06 15:01N 29°40' W 094°59'4 7.9
2019-Mar-06 14:30N 29°43' W 095°01'3 6.7
2019-Mar-06 14:00N 29°45' W 095°04'3 5.6
2019-Mar-06 13:30N 29°44' W 095°07'  
2019-Mar-04 01:14N 29°44' W 095°07'1 2.0
2019-Mar-04 00:59N 29°44' W 095°07'3 5.7
2019-Mar-04 00:30N 29°45' W 095°04'4 8.1
2019-Mar-04 00:00N 29°42' W 095°01'610.9
2019-Mar-03 23:30N 29°37' W 094°58'612.4
2019-Mar-03 23:00N 29°32' W 094°54'712.8
2019-Mar-03 22:29N 29°26' W 094°50'612.7
2019-Mar-03 22:00N 29°21' W 094°47'712.5
2019-Mar-03 21:27N 29°19' W 094°39'15 9.3
2019-Mar-03 19:48N 29°13' W 094°23'0 0.1
2019-Mar-03 18:59N 29°13' W 094°23'0 0.0
2019-Mar-03 18:08N 29°13' W 094°23'0 0.0
2019-Mar-03 07:53N 29°13' W 094°23'0 0.0
2019-Mar-03 05:59N 29°13' W 094°23'0 0.0
2019-Mar-03 05:29N 29°13' W 094°23'0 0.0
2019-Mar-03 00:47N 29°13' W 094°23'0 0.0
2019-Mar-03 00:17N 29°13' W 094°23'0 0.0
2019-Mar-02 23:53N 29°13' W 094°23'0 0.0
2019-Mar-02 23:08N 29°13' W 094°23'0 0.0
2019-Mar-02 22:29N 29°13' W 094°23'0 0.0
2019-Mar-02 21:53N 29°13' W 094°23'0 0.1
2019-Mar-02 20:20N 29°13' W 094°23'0 0.0
2019-Mar-02 18:38N 29°13' W 094°23'0 0.0
2019-Mar-02 17:23N 29°13' W 094°23'  
Track history (hours):
 
Tides and Currents Weather Stations Pressure Air Temp Water Temp Dewpoint Dewpoint Depression Visibility Wind Speed Wind Dir Waves Ship Positions

Larkspur

Operator: Transeuropa Lines

Last reported at 2019-Mar-12 16:27 UTC. Time now 2019-Mar-22 12:47 UTC.
Position N 09°13' W 079°55'.
Warning: this ship's position is 9 days out of date.

Length 225 m; draft 11.6 m.

Type: Tanker. MMSI: 311000344.

Date/timePositionNaut miles runAvg speedWind from/ knotsBaromVisibWave heightAir tempDewpointWater temp
2019-Mar-12 16:27N 09°13' W 079°55'1 0.8
2019-Mar-12 15:36N 09°13' W 079°56'0 0.1
2019-Mar-12 15:30N 09°13' W 079°56'0 0.0
2019-Mar-12 14:45N 09°13' W 079°56'0 0.0
2019-Mar-12 14:30N 09°13' W 079°56'0 0.0
2019-Mar-12 14:00N 09°13' W 079°56'0 0.0
2019-Mar-12 13:30N 09°13' W 079°56'0 0.0
2019-Mar-12 12:54N 09°13' W 079°56'0 0.1
2019-Mar-12 12:27N 09°13' W 079°56'0 0.0
2019-Mar-12 12:00N 09°13' W 079°56'0 0.0
2019-Mar-12 11:27N 09°13' W 079°56'0 0.0
2019-Mar-12 11:00N 09°13' W 079°56'0 0.0
2019-Mar-12 10:27N 09°13' W 079°56'0 0.0
2019-Mar-12 10:00N 09°13' W 079°56'0 0.0
2019-Mar-12 09:30N 09°13' W 079°56'0 0.0
2019-Mar-12 08:57N 09°13' W 079°56'0 0.0
2019-Mar-12 07:18N 09°13' W 079°56'0 0.0
2019-Mar-12 05:45N 09°13' W 079°56'0 0.1
2019-Mar-12 05:30N 09°13' W 079°56'0 0.0
2019-Mar-12 05:00N 09°13' W 079°56'0 0.1
2019-Mar-12 04:24N 09°13' W 079°56'0 0.4
2019-Mar-12 04:00N 09°13' W 079°56'2 4.3
2019-Mar-12 03:26N 09°16' W 079°55'0 0.7
2019-Mar-12 03:00N 09°16' W 079°55'0 0.4
2019-Mar-12 02:30N 09°16' W 079°55'0 0.2
2019-Mar-12 01:50N 09°16' W 079°55'1 0.6
2019-Mar-12 00:36N 09°17' W 079°55'1 1.3
2019-Mar-12 00:05N 09°18' W 079°55'0 2.1
2019-Mar-11 23:59N 09°18' W 079°55'2 4.7
2019-Mar-11 23:30N 09°20' W 079°55'3 6.2
2019-Mar-11 23:00N 09°23' W 079°55'3 6.9
2019-Mar-11 22:30N 09°27' W 079°55'3 5.2
2019-Mar-11 22:00N 09°29' W 079°57'1 0.6
2019-Mar-11 21:10N 09°29' W 079°56'0 0.0
2019-Mar-11 20:58N 09°29' W 079°56'0 0.0
2019-Mar-11 20:22N 09°29' W 079°56'0 0.0
2019-Mar-11 19:55N 09°29' W 079°56'0 0.0
2019-Mar-11 19:28N 09°29' W 079°56'0 0.0
2019-Mar-11 18:58N 09°29' W 079°56'0 0.1
2019-Mar-11 18:28N 09°29' W 079°56'0 0.0
2019-Mar-11 17:43N 09°29' W 079°56'0 0.2
2019-Mar-11 17:25N 09°29' W 079°56'0 0.0
2019-Mar-11 16:28N 09°29' W 079°56'0 0.0
2019-Mar-11 15:55N 09°29' W 079°56'0 0.0
2019-Mar-11 15:10N 09°29' W 079°56'0 0.0
2019-Mar-11 14:49N 09°29' W 079°56'0 0.1
2019-Mar-11 14:13N 09°29' W 079°56'0 0.2
2019-Mar-11 13:52N 09°29' W 079°56'0 0.0
2019-Mar-11 13:28N 09°29' W 079°56'0 0.1
2019-Mar-11 12:58N 09°29' W 079°56'0 0.0
2019-Mar-11 12:28N 09°29' W 079°56'0 0.0
2019-Mar-11 11:58N 09°29' W 079°56'0 0.1
2019-Mar-11 11:28N 09°29' W 079°56'0 0.0
2019-Mar-11 10:58N 09°29' W 079°56'0 0.0
2019-Mar-11 10:28N 09°29' W 079°56'0 0.1
2019-Mar-11 09:58N 09°29' W 079°56'0 0.1
2019-Mar-11 09:16N 09°29' W 079°56'0 0.0
2019-Mar-11 08:58N 09°29' W 079°56'0 0.0
2019-Mar-11 08:28N 09°29' W 079°56'0 0.1
2019-Mar-11 08:00N 09°29' W 079°56'0 0.9
2019-Mar-11 07:31N 09°29' W 079°56'3 5.9
2019-Mar-11 07:00N 09°31' W 079°54'612.2
2019-Mar-11 06:29N 09°37' W 079°52'  
2019-Mar-06 17:28N 29°20' W 094°40'612.6
2019-Mar-06 17:00N 29°21' W 094°47'612.1
2019-Mar-06 16:30N 29°26' W 094°50'611.4
2019-Mar-06 16:00N 29°31' W 094°53'510.8
2019-Mar-06 15:30N 29°36' W 094°57'5 9.1
2019-Mar-06 15:01N 29°40' W 094°59'4 7.9
2019-Mar-06 14:30N 29°43' W 095°01'3 6.7
2019-Mar-06 14:00N 29°45' W 095°04'3 5.6
2019-Mar-06 13:30N 29°44' W 095°07'  
2019-Mar-04 01:14N 29°44' W 095°07'1 2.0
2019-Mar-04 00:59N 29°44' W 095°07'3 5.7
2019-Mar-04 00:30N 29°45' W 095°04'4 8.1
2019-Mar-04 00:00N 29°42' W 095°01'610.9
2019-Mar-03 23:30N 29°37' W 094°58'612.4
2019-Mar-03 23:00N 29°32' W 094°54'712.8
2019-Mar-03 22:29N 29°26' W 094°50'612.7
2019-Mar-03 22:00N 29°21' W 094°47'712.5
2019-Mar-03 21:27N 29°19' W 094°39'15 9.3
2019-Mar-03 19:48N 29°13' W 094°23'0 0.1
2019-Mar-03 18:59N 29°13' W 094°23'0 0.0
2019-Mar-03 18:08N 29°13' W 094°23'0 0.0
2019-Mar-03 07:53N 29°13' W 094°23'0 0.0
2019-Mar-03 05:59N 29°13' W 094°23'0 0.0
2019-Mar-03 05:29N 29°13' W 094°23'0 0.0
2019-Mar-03 00:47N 29°13' W 094°23'0 0.0
2019-Mar-03 00:17N 29°13' W 094°23'0 0.0
2019-Mar-02 23:53N 29°13' W 094°23'0 0.0
2019-Mar-02 23:08N 29°13' W 094°23'0 0.0
2019-Mar-02 22:29N 29°13' W 094°23'0 0.0
2019-Mar-02 21:53N 29°13' W 094°23'0 0.1
2019-Mar-02 20:20N 29°13' W 094°23'0 0.0
2019-Mar-02 18:38N 29°13' W 094°23'0 0.0
2019-Mar-02 17:23N 29°13' W 094°23'  

Dump ship's entire track history